createdAt,value
2018-04-01T00:00:51.955Z,5.20
2018-04-01T00:03:19.005Z,3.60
2018-04-01T00:05:46.034Z,4.25
2018-04-01T00:08:13.087Z,6.73
2018-04-01T00:10:40.122Z,3.50
2018-04-01T00:13:07.938Z,4.53
2018-04-01T00:15:34.968Z,6.03
2018-04-01T00:18:02.027Z,4.75
2018-04-01T00:20:29.065Z,3.80
2018-04-01T00:22:56.108Z,4.90
2018-04-01T00:25:23.178Z,4.22
2018-04-01T00:27:50.233Z,4.03
2018-04-01T00:30:17.266Z,4.18
2018-04-01T00:32:44.318Z,4.10
2018-04-01T00:35:11.350Z,3.53
2018-04-01T00:37:38.402Z,3.72
2018-04-01T00:40:05.434Z,4.35
2018-04-01T00:42:32.498Z,4.35
2018-04-01T00:44:59.532Z,4.37
2018-04-01T00:47:26.563Z,3.85
2018-04-01T00:49:53.613Z,3.75
2018-04-01T00:52:21.413Z,3.22
2018-04-01T00:54:48.475Z,3.85
2018-04-01T00:57:15.506Z,3.30
2018-04-01T00:59:42.559Z,3.62
2018-04-01T01:02:09.595Z,2.90
2018-04-01T01:04:36.656Z,3.12
2018-04-01T01:07:03.686Z,3.58
2018-04-01T01:09:31.502Z,3.83
2018-04-01T01:11:58.536Z,3.37
2018-04-01T01:14:25.590Z,4.05
2018-04-01T01:16:52.625Z,4.20
2018-04-01T01:19:19.673Z,4.22
2018-04-01T01:21:46.710Z,5.03
2018-04-01T01:24:14.521Z,5.22
2018-04-01T01:26:41.551Z,6.45
2018-04-01T01:29:08.586Z,4.60
2018-04-01T01:31:35.640Z,5.12
2018-04-01T01:34:02.665Z,5.28
2018-04-01T01:36:30.477Z,4.03
2018-04-01T01:38:57.514Z,4.65
2018-04-01T01:41:24.569Z,5.75
2018-04-01T01:43:51.595Z,4.90
2018-04-01T01:46:18.645Z,5.12
2018-04-01T01:48:45.675Z,4.53
2018-04-01T01:51:13.485Z,4.90
2018-04-01T01:53:40.509Z,6.25
2018-04-01T01:56:07.568Z,3.92
2018-04-01T01:58:34.597Z,3.90
2018-04-01T02:01:02.415Z,6.22
2018-04-01T02:03:29.446Z,6.95
2018-04-01T02:05:56.481Z,5.35
2018-04-01T02:08:23.533Z,5.82
2018-04-01T02:10:50.562Z,4.25
2018-04-01T02:13:18.379Z,5.65
2018-04-01T02:15:45.410Z,5.62
2018-04-01T02:18:12.469Z,5.68
2018-04-01T02:20:39.510Z,4.28
2018-04-01T02:23:06.571Z,6.00
2018-04-01T02:25:33.603Z,5.68
2018-04-01T02:28:00.650Z,5.28
2018-04-01T02:30:28.377Z,4.28
2018-04-01T02:32:56.198Z,4.62
2018-04-01T02:35:23.231Z,6.55
2018-04-01T02:37:50.280Z,6.82
2018-04-01T02:40:17.314Z,5.50
2018-04-01T02:42:44.373Z,7.90
2018-04-01T02:45:11.410Z,5.55
2018-04-01T02:47:38.447Z,5.18
2018-04-01T02:50:05.512Z,4.75
2018-04-01T02:52:32.551Z,4.30
2018-04-01T02:55:00.365Z,4.97
2018-04-01T02:57:27.400Z,4.47
2018-04-01T02:59:54.458Z,4.00
2018-04-01T03:02:21.494Z,5.45
2018-04-01T03:04:48.545Z,6.65
2018-04-01T03:07:15.575Z,4.28
2018-04-01T03:09:42.632Z,5.53
2018-04-01T03:12:09.668Z,5.55
2018-04-01T03:14:36.722Z,5.35
2018-04-01T03:17:03.753Z,5.37
2018-04-01T03:19:30.790Z,6.47
2018-04-01T03:21:58.607Z,4.87
2018-04-01T03:24:25.634Z,4.32
2018-04-01T03:26:52.681Z,4.50
2018-04-01T03:29:19.710Z,5.03
2018-04-01T03:31:47.524Z,5.85
2018-04-01T03:34:14.557Z,4.57
2018-04-01T03:36:41.615Z,4.57
2018-04-01T03:39:08.641Z,5.05
2018-04-01T03:41:35.696Z,4.32
2018-04-01T03:44:02.731Z,5.65
2018-04-01T03:46:30.551Z,6.20
2018-04-01T03:48:57.583Z,5.40
2018-04-01T03:51:24.635Z,6.20
2018-04-01T03:53:51.665Z,6.32
2018-04-01T03:56:18.731Z,4.95
2018-04-01T03:58:45.762Z,8.57
2018-04-01T04:01:12.831Z,5.18
2018-04-01T04:03:39.863Z,5.80
2018-04-01T04:06:06.894Z,4.28
2018-04-01T04:08:34.711Z,7.05
2018-04-01T04:11:01.744Z,6.07
2018-04-01T04:13:28.785Z,4.93
2018-04-01T04:15:55.814Z,5.78
2018-04-01T04:18:22.863Z,5.45
2018-04-01T04:20:49.896Z,5.37
2018-04-01T04:23:17.706Z,7.55
2018-04-01T04:25:44.730Z,6.25
2018-04-01T04:28:11.807Z,7.12
2018-04-01T04:30:38.831Z,7.62
2018-04-01T04:33:05.876Z,8.75
2018-04-01T04:35:32.950Z,8.13
2018-04-01T04:38:00.005Z,8.05
2018-04-01T04:40:27.038Z,7.97
2018-04-01T04:42:54.106Z,6.95
2018-04-01T04:45:21.150Z,6.32
2018-04-01T04:47:48.173Z,7.05
2018-04-01T04:50:15.223Z,7.90
2018-04-01T04:52:42.294Z,7.87
2018-04-01T04:55:09.342Z,7.75
2018-04-01T04:57:36.372Z,6.65
2018-04-01T05:00:03.429Z,9.73
2018-04-01T05:02:30.462Z,9.10
2018-04-01T05:04:58.284Z,10.35
2018-04-01T05:07:25.309Z,6.30
2018-04-01T05:09:52.357Z,6.30
2018-04-01T05:12:19.386Z,5.47
2018-04-01T05:14:46.429Z,5.15
2018-04-01T05:17:13.458Z,6.75
2018-04-01T05:19:41.275Z,6.35
2018-04-01T05:22:08.307Z,9.57
2018-04-01T05:24:35.349Z,5.25
2018-04-01T05:27:02.372Z,7.97
2018-04-01T05:29:30.170Z,5.68
2018-04-01T05:31:57.224Z,5.75
2018-04-01T05:34:24.258Z,5.30
2018-04-01T05:36:51.310Z,6.80
2018-04-01T05:39:18.342Z,6.25
2018-04-01T05:41:46.154Z,7.85
2018-04-01T05:44:13.198Z,8.23
2018-04-01T05:46:40.245Z,6.12
2018-04-01T05:49:07.278Z,5.93
2018-04-01T05:51:34.407Z,5.87
2018-04-01T05:54:01.384Z,12.43
2018-04-01T05:56:28.446Z,13.98
2018-04-01T05:58:55.523Z,14.00
2018-04-01T06:01:22.569Z,8.83
2018-04-01T06:03:49.606Z,11.60
2018-04-01T06:06:16.662Z,8.97
2018-04-01T06:08:43.693Z,7.37
2018-04-01T06:11:10.727Z,11.47
2018-04-01T06:13:37.785Z,7.47
2018-04-01T06:16:04.813Z,7.57
2018-04-01T06:18:31.866Z,7.17
2018-04-01T06:20:58.897Z,7.97
2018-04-01T06:23:26.714Z,10.10
2018-04-01T06:25:53.741Z,7.23
2018-04-01T06:28:20.788Z,6.60
2018-04-01T06:30:47.818Z,13.80
2018-04-01T06:33:14.873Z,11.93
2018-04-01T06:35:41.907Z,6.23
2018-04-01T06:38:09.714Z,7.20
2018-04-01T06:40:36.753Z,6.10
2018-04-01T06:43:03.799Z,7.13
2018-04-01T06:45:30.835Z,6.87
2018-04-01T06:47:57.890Z,10.03
2018-04-01T06:50:24.913Z,6.53
2018-04-01T06:52:52.727Z,5.13
2018-04-01T06:55:19.752Z,5.20
2018-04-01T06:57:46.787Z,4.70
2018-04-01T07:00:13.836Z,4.13
2018-04-01T07:02:41.627Z,5.87
2018-04-01T07:05:08.674Z,4.90
2018-04-01T07:07:35.699Z,4.80
2018-04-01T07:10:03.511Z,5.17
2018-04-01T07:12:30.532Z,4.27
2018-04-01T07:14:57.603Z,5.43
2018-04-01T07:17:24.631Z,10.97
2018-04-01T07:19:51.679Z,4.57
2018-04-01T07:22:18.706Z,3.73
2018-04-01T07:24:46.518Z,4.90
2018-04-01T07:27:13.545Z,6.20
2018-04-01T07:29:40.598Z,5.07
2018-04-01T07:32:07.632Z,4.90
2018-04-01T07:34:34.678Z,6.47
2018-04-01T07:37:01.711Z,4.60
2018-04-01T07:39:29.522Z,10.20
2018-04-01T07:41:56.545Z,5.93
2018-04-01T07:44:23.613Z,8.50
2018-04-01T07:46:50.637Z,7.10
2018-04-01T07:49:17.666Z,7.13
2018-04-01T07:51:44.715Z,8.57
2018-04-01T07:54:11.742Z,8.60
2018-04-01T07:56:38.786Z,8.27
2018-04-01T07:59:05.823Z,8.43
2018-04-01T08:01:32.871Z,8.87
2018-04-01T08:03:59.893Z,10.20
2018-04-01T08:06:26.935Z,7.87
2018-04-01T08:08:53.970Z,9.80
2018-04-01T08:11:21.783Z,9.00
2018-04-01T08:13:48.810Z,10.30
2018-04-01T08:16:15.860Z,17.30
2018-04-01T08:21:16.306Z,13.03
2018-04-01T08:23:43.338Z,14.10
2018-04-01T08:26:10.391Z,14.13
2018-04-01T08:28:37.422Z,13.70
2018-04-01T08:31:04.490Z,14.43
2018-04-01T08:33:32.291Z,17.37
2018-04-01T08:35:59.347Z,16.50
2018-04-01T08:38:26.389Z,13.13
2018-04-01T08:40:53.438Z,15.43
2018-04-01T08:43:20.470Z,13.93
2018-04-01T08:45:47.523Z,12.47
2018-04-01T08:48:14.563Z,13.50
2018-04-01T08:50:41.631Z,13.50
2018-04-01T08:53:08.657Z,14.10
2018-04-01T08:55:35.693Z,17.40
2018-04-01T08:58:02.749Z,13.83
2018-04-01T09:00:30.543Z,16.80
2018-04-01T09:02:57.599Z,16.20
2018-04-01T09:05:24.632Z,20.90
2018-04-01T09:07:51.683Z,13.37
2018-04-01T09:10:18.714Z,16.93
2018-04-01T09:12:46.529Z,18.93
2018-04-01T09:15:13.559Z,16.83
2018-04-01T09:17:40.601Z,11.43
2018-04-01T09:20:07.642Z,11.30
2018-04-01T09:22:34.696Z,4.50
2018-04-01T09:25:01.731Z,2.90
2018-04-01T09:27:28.757Z,1.83
2018-04-01T09:29:55.808Z,2.20
2018-04-01T09:32:22.838Z,3.83
2018-04-01T09:34:49.898Z,2.33
2018-04-01T09:37:16.921Z,1.70
2018-04-01T09:39:43.967Z,1.53
2018-04-01T09:42:11.005Z,2.03
2018-04-01T09:44:38.057Z,9.67
2018-04-01T09:47:05.078Z,2.47
2018-04-01T09:49:32.120Z,1.53
2018-04-01T09:51:59.913Z,3.10
2018-04-01T09:54:26.979Z,2.13
2018-04-01T09:56:54.007Z,3.37
2018-04-01T09:59:21.055Z,2.43
2018-04-01T10:01:48.567Z,2.63
2018-04-01T10:04:16.178Z,3.77
2018-04-01T10:06:43.703Z,3.10
2018-04-01T10:09:11.982Z,3.23
2018-04-01T10:11:40.303Z,3.17
2018-04-01T10:14:07.823Z,2.40
2018-04-01T10:16:36.130Z,3.37
2018-04-01T10:19:03.644Z,3.60
2018-04-01T10:21:31.949Z,2.40
2018-04-01T10:24:00.239Z,2.40
2018-04-01T10:26:27.778Z,2.83
2018-04-01T10:28:56.112Z,4.37
2018-04-01T10:31:23.650Z,4.63
2018-04-01T10:33:51.164Z,6.30
2018-04-01T10:36:18.702Z,4.33
2018-04-01T10:38:46.224Z,4.50
2018-04-01T10:41:13.770Z,4.47
2018-04-01T10:43:43.801Z,4.20
2018-04-01T10:46:11.343Z,6.00
2018-04-01T10:48:39.631Z,4.83
2018-04-01T10:51:07.173Z,5.17
2018-04-01T10:53:35.459Z,5.17
2018-04-01T10:56:03.270Z,5.80
2018-04-01T10:58:30.289Z,6.53
2018-04-01T11:00:57.333Z,5.50
2018-04-01T11:03:25.128Z,5.77
2018-04-01T11:05:52.173Z,6.33
2018-04-01T11:08:19.198Z,7.23
2018-04-01T11:10:47.018Z,7.40
2018-04-01T11:13:14.047Z,9.07
2018-04-01T11:15:41.074Z,6.83
2018-04-01T11:18:08.176Z,9.23
2018-04-01T11:20:35.171Z,12.53
2018-04-01T11:23:02.210Z,8.97
2018-04-01T11:25:30.005Z,8.17
2018-04-01T11:27:57.051Z,7.47
2018-04-01T11:30:24.088Z,11.33
2018-04-01T11:32:51.135Z,7.47
2018-04-01T11:35:18.162Z,7.10
2018-04-01T11:37:45.982Z,9.43
2018-04-01T11:40:13.009Z,8.63
2018-04-01T11:42:40.060Z,7.60
2018-04-01T11:45:07.089Z,8.33
2018-04-01T11:47:34.162Z,7.20
2018-04-01T11:50:01.200Z,7.77
2018-04-01T11:52:28.230Z,6.30
2018-04-01T11:54:56.044Z,7.00
2018-04-01T11:57:23.080Z,5.83
2018-04-01T11:59:50.134Z,5.87
2018-04-01T12:02:17.163Z,5.70
2018-04-01T12:04:44.210Z,5.53
2018-04-01T12:07:11.237Z,6.50
2018-04-01T12:09:39.050Z,5.07
2018-04-01T12:12:06.073Z,5.23
2018-04-01T12:14:33.119Z,4.40
2018-04-01T12:17:00.141Z,3.10
2018-04-01T12:19:27.952Z,2.40
2018-04-01T12:21:54.982Z,1.77
2018-04-01T12:24:22.040Z,2.87
2018-04-01T12:26:49.127Z,2.33
2018-04-01T12:29:16.134Z,3.10
2018-04-01T12:31:43.157Z,3.10
2018-04-01T12:34:10.973Z,3.33
2018-04-01T12:36:38.007Z,4.27
2018-04-01T12:39:05.037Z,3.03
2018-04-01T12:41:32.085Z,3.30
2018-04-01T12:43:59.118Z,1.87
2018-04-01T12:46:26.938Z,2.63
2018-04-01T12:48:53.966Z,1.90
2018-04-01T12:51:21.024Z,2.33
2018-04-01T12:53:48.056Z,2.60
2018-04-01T12:56:15.139Z,1.93
2018-04-01T12:58:42.611Z,1.73
2018-04-01T13:01:09.666Z,1.40
2018-04-01T13:03:36.694Z,1.20
2018-04-01T13:06:03.741Z,2.13
2018-04-01T13:08:30.769Z,1.87
2018-04-01T13:10:57.811Z,1.67
2018-04-01T13:13:24.838Z,2.03
2018-04-01T13:15:52.643Z,1.57
2018-04-01T13:18:19.681Z,1.93
2018-04-01T13:20:46.711Z,1.60
2018-04-01T13:23:13.760Z,2.10
2018-04-01T13:25:40.787Z,2.43
2018-04-01T13:28:08.608Z,2.30
2018-04-01T13:30:35.633Z,2.40
2018-04-01T13:33:02.682Z,2.20
2018-04-01T13:35:29.713Z,2.87
2018-04-01T13:37:57.533Z,3.20
2018-04-01T13:40:24.554Z,3.23
2018-04-01T13:42:51.598Z,3.20
2018-04-01T13:45:18.629Z,5.60
2018-04-01T13:47:45.678Z,4.10
2018-04-01T13:50:12.706Z,4.30
2018-04-01T13:52:40.523Z,3.37
2018-04-01T13:55:07.560Z,3.93
2018-04-01T13:57:34.601Z,3.97
2018-04-01T14:00:01.663Z,3.00
2018-04-01T14:02:28.718Z,4.33
2018-04-01T14:04:55.745Z,2.97
2018-04-01T14:07:22.770Z,5.43
2018-04-01T14:09:50.573Z,5.23
2018-04-01T14:12:17.595Z,4.23
2018-04-01T14:14:44.644Z,4.10
2018-04-01T14:17:11.667Z,6.03
2018-04-01T14:19:38.711Z,7.33
2018-04-01T14:22:05.739Z,4.20
2018-04-01T14:24:32.786Z,3.63
2018-04-01T14:26:59.818Z,2.80
2018-04-01T14:29:26.862Z,8.33
2018-04-01T14:31:53.895Z,5.53
2018-04-01T14:34:20.937Z,3.97
2018-04-01T14:36:47.958Z,4.00
2018-04-01T14:39:15.006Z,3.70
2018-04-01T14:41:42.034Z,3.60
2018-04-01T14:44:09.079Z,4.20
2018-04-01T14:46:36.105Z,5.20
2018-04-01T14:49:03.150Z,3.57
2018-04-01T14:51:30.173Z,4.70
2018-04-01T14:53:57.982Z,4.37
2018-04-01T14:56:25.015Z,4.33
2018-04-01T14:58:52.061Z,3.90
2018-04-01T15:01:19.091Z,4.03
2018-04-01T15:03:46.138Z,4.20
2018-04-01T15:06:13.163Z,4.50
2018-04-01T15:08:40.991Z,3.60
2018-04-01T15:11:08.030Z,4.10
2018-04-01T15:13:35.055Z,5.57
2018-04-01T15:16:02.106Z,5.60
2018-04-01T15:18:29.169Z,6.53
2018-04-01T15:20:56.219Z,5.37
2018-04-01T15:23:23.255Z,5.10
2018-04-01T15:25:50.302Z,4.27
2018-04-01T15:28:17.338Z,6.30
2018-04-01T15:30:45.150Z,3.77
2018-04-01T15:33:12.181Z,5.67
2018-04-01T15:35:39.228Z,5.23
2018-04-01T15:38:06.264Z,5.90
2018-04-01T15:40:34.964Z,6.70
2018-04-01T15:43:02.006Z,5.40
2018-04-01T15:45:29.055Z,4.63
2018-04-01T15:47:56.089Z,5.23
2018-04-01T15:50:23.898Z,11.93
2018-04-01T15:52:50.930Z,9.40
2018-04-01T15:55:17.994Z,5.67
2018-04-01T15:57:45.020Z,5.70
2018-04-01T16:00:12.072Z,7.20
2018-04-01T16:02:39.118Z,6.73
2018-04-01T16:05:06.168Z,5.50
2018-04-01T16:07:33.197Z,6.97
2018-04-01T16:10:00.218Z,5.77
2018-04-01T16:12:27.264Z,6.97
2018-04-01T16:14:54.295Z,7.07
2018-04-01T16:17:21.338Z,6.07
2018-04-01T16:19:48.368Z,6.57
2018-04-01T16:22:15.422Z,5.60
2018-04-01T16:24:42.449Z,6.37
2018-04-01T16:27:09.499Z,6.77
2018-04-01T16:29:36.531Z,7.30
2018-04-01T16:32:03.578Z,8.97
2018-04-01T16:34:31.376Z,14.30
2018-04-01T16:36:58.423Z,9.60
2018-04-01T16:39:25.453Z,8.90
2018-04-01T16:41:52.502Z,10.73
2018-04-01T16:44:19.532Z,7.17
2018-04-01T16:46:47.337Z,6.73
2018-04-01T16:49:14.365Z,5.87
2018-04-01T16:51:41.413Z,7.57
2018-04-01T16:54:08.613Z,7.13
2018-04-01T16:56:35.659Z,4.57
2018-04-01T16:59:04.220Z,5.60
2018-04-01T17:01:32.293Z,6.07
2018-04-01T17:03:59.318Z,6.07
2018-04-01T17:06:26.347Z,10.27
2018-04-01T17:08:54.157Z,7.33
2018-04-01T17:11:21.185Z,9.23
2018-04-01T17:13:48.225Z,8.60
2018-04-01T17:16:16.014Z,6.63
2018-04-01T17:18:43.058Z,7.43
2018-04-01T17:21:10.081Z,7.33
2018-04-01T17:23:37.898Z,10.90
2018-04-01T17:26:04.930Z,8.73
2018-04-01T17:28:31.986Z,6.20
2018-04-01T17:30:59.014Z,14.30
2018-04-01T17:33:26.074Z,7.57
2018-04-01T17:35:53.102Z,7.37
2018-04-01T17:38:20.150Z,7.07
2018-04-01T17:40:47.182Z,7.03
2018-04-01T17:43:14.998Z,8.70
2018-04-01T17:45:42.025Z,5.93
2018-04-01T17:48:09.071Z,7.87
2018-04-01T17:50:36.094Z,7.70
2018-04-01T17:53:03.889Z,8.77
2018-04-01T17:55:30.934Z,9.33
2018-04-01T17:57:57.963Z,9.20
2018-04-01T18:00:26.078Z,7.50
2018-04-01T18:02:53.114Z,7.10
2018-04-01T18:05:20.175Z,8.97
2018-04-01T18:07:47.198Z,6.20
2018-04-01T18:10:15.016Z,9.20
2018-04-01T18:12:42.043Z,9.23
2018-04-01T18:15:09.089Z,9.57
2018-04-01T18:17:36.130Z,10.17
2018-04-01T18:20:03.181Z,8.07
2018-04-01T18:22:30.211Z,7.50
2018-04-01T18:24:57.262Z,12.93
2018-04-01T18:27:25.055Z,9.00
2018-04-01T18:29:52.093Z,9.83
2018-04-01T18:32:19.121Z,9.77
2018-04-01T18:34:46.939Z,7.57
2018-04-01T18:37:13.962Z,6.23
2018-04-01T18:39:40.990Z,11.07
2018-04-01T18:42:08.806Z,10.27
2018-04-01T18:44:35.830Z,15.37
2018-04-01T18:47:02.884Z,17.60
2018-04-01T18:49:29.910Z,15.60
2018-04-01T18:51:57.735Z,11.27
2018-04-01T18:54:24.866Z,9.27
2018-04-01T18:56:51.914Z,8.73
2018-04-01T18:59:18.955Z,13.80
2018-04-01T19:01:46.011Z,14.20
2018-04-01T19:04:13.037Z,11.30
2018-04-01T19:06:40.086Z,10.57
2018-04-01T19:09:07.125Z,11.10
2018-04-01T19:11:34.186Z,11.77
2018-04-01T19:14:01.211Z,6.37
2018-04-01T19:16:29.520Z,8.83
2018-04-01T19:18:57.037Z,8.97
2018-04-01T19:21:24.574Z,9.53
2018-04-01T19:23:52.092Z,8.53
2018-04-01T19:26:19.631Z,11.53
2018-04-01T19:28:47.180Z,9.67
2018-04-01T19:31:14.687Z,12.67
2018-04-01T19:33:42.228Z,10.70
2018-04-01T19:36:10.509Z,16.23
2018-04-01T19:38:38.046Z,12.80
2018-04-01T19:41:05.568Z,12.10
2018-04-01T19:43:33.107Z,9.80
2018-04-01T19:46:00.626Z,13.70
2018-04-01T19:48:28.160Z,11.10
2018-04-01T19:50:55.676Z,13.37
2018-04-01T19:53:24.037Z,18.07
2018-04-01T19:55:51.527Z,13.17
2018-04-01T19:58:19.062Z,13.10
2018-04-01T20:00:47.350Z,13.50
2018-04-01T20:03:15.650Z,17.03
2018-04-01T20:05:43.178Z,16.90
2018-04-01T20:08:11.490Z,12.90
2018-04-01T20:10:39.011Z,12.07
2018-04-01T20:13:06.542Z,12.30
2018-04-01T20:15:34.086Z,10.60
2018-04-01T20:18:01.631Z,10.90
2018-04-01T20:20:29.218Z,14.27
2018-04-01T20:22:56.763Z,14.30
2018-04-01T20:25:24.290Z,16.37
2018-04-01T20:27:52.594Z,13.17
2018-04-01T20:30:20.175Z,14.47
2018-04-01T20:32:47.700Z,14.10
2018-04-01T20:35:16.006Z,15.10
2018-04-01T20:37:43.584Z,11.80
2018-04-01T20:40:11.081Z,12.73
2018-04-01T20:42:39.371Z,14.00
2018-04-01T20:45:07.682Z,10.77
2018-04-01T20:47:35.206Z,14.27
2018-04-01T20:50:03.516Z,14.07
2018-04-01T20:52:31.045Z,20.00
2018-04-01T20:54:59.348Z,18.00
2018-04-01T20:57:26.869Z,19.07
2018-04-01T20:59:54.404Z,15.50
2018-04-01T21:02:21.929Z,17.27
2018-04-01T21:04:49.471Z,16.17
2018-04-01T21:07:17.767Z,19.30
2018-04-01T21:09:45.309Z,17.13
2018-04-01T21:12:13.594Z,13.57
2018-04-01T21:14:41.137Z,17.20
2018-04-01T21:17:08.658Z,20.50
2018-04-01T21:19:36.207Z,19.77
2018-04-01T21:22:03.733Z,21.37
2018-04-01T21:24:32.018Z,25.43
2018-04-01T21:26:59.557Z,21.67
2018-04-01T21:29:27.862Z,24.23
2018-04-01T21:31:55.417Z,24.07
2018-04-01T21:34:22.946Z,21.60
2018-04-01T21:36:51.995Z,22.40
2018-04-01T21:39:19.564Z,27.80
2018-04-01T21:41:47.078Z,27.10
2018-04-01T21:44:14.598Z,31.10
2018-04-01T21:46:42.143Z,27.60
2018-04-01T21:49:09.668Z,24.70
2018-04-01T21:51:37.979Z,32.03
2018-04-01T21:54:05.497Z,26.77
2018-04-01T21:56:33.807Z,28.70
2018-04-01T21:59:01.386Z,25.53
2018-04-01T22:01:28.936Z,22.17
2018-04-01T22:03:56.458Z,26.53
2018-04-01T22:06:23.999Z,23.80
2018-04-01T22:08:51.564Z,23.90
2018-04-01T22:11:19.074Z,19.70
2018-04-01T22:13:46.594Z,20.20
2018-04-01T22:16:14.143Z,18.77
2018-04-01T22:18:41.923Z,23.03
2018-04-01T22:21:09.442Z,19.77
2018-04-01T22:23:36.985Z,17.23
2018-04-01T22:26:04.506Z,23.03
2018-04-01T22:28:32.051Z,24.27
2018-04-01T22:30:59.579Z,27.43
2018-04-01T22:33:27.117Z,24.70
2018-04-01T22:35:54.698Z,24.53
2018-04-01T22:38:22.242Z,24.07
2018-04-01T22:40:49.761Z,26.57
2018-04-01T22:43:17.302Z,24.53
2018-04-01T22:45:44.818Z,23.30
2018-04-01T22:48:12.359Z,28.20
2018-04-01T22:50:40.648Z,27.80
2018-04-01T22:53:08.957Z,26.50
2018-04-01T22:55:36.491Z,28.07
2018-04-01T22:58:04.042Z,28.70
2018-04-01T23:00:32.337Z,29.73
2018-04-01T23:02:59.881Z,29.83
2018-04-01T23:05:28.166Z,33.60
2018-04-01T23:07:56.479Z,30.50
2018-04-01T23:10:24.037Z,32.97
2018-04-01T23:12:51.567Z,29.13
2018-04-01T23:15:19.859Z,33.30
2018-04-01T23:17:47.403Z,30.83
2018-04-01T23:20:15.694Z,34.20
2018-04-01T23:22:43.233Z,30.70
2018-04-01T23:25:11.550Z,31.40
2018-04-01T23:27:39.063Z,33.73
2018-04-01T23:30:06.606Z,30.50
2018-04-01T23:32:34.139Z,30.60
2018-04-01T23:35:01.677Z,33.47
2018-04-01T23:37:29.194Z,30.83
2018-04-01T23:39:56.737Z,30.20
2018-04-01T23:42:24.257Z,31.10
2018-04-01T23:44:51.802Z,37.90
2018-04-01T23:47:20.089Z,32.80
2018-04-01T23:49:48.390Z,31.87
2018-04-01T23:52:15.913Z,30.77
2018-04-01T23:54:44.232Z,26.10
2018-04-01T23:57:11.761Z,30.70
2018-04-01T23:59:40.065Z,33.63
